sensor_id;sensor_type;location;lat;lon;timestamp;pressure;altitude;pressure_sealevel;temperature;humidity
37170;BME280;23062;13.952;100.608;2022-09-03T00:04:21;748.55;;;-142.63;93.56
37170;BME280;23062;13.952;100.608;2022-09-03T00:09:31;748.49;;;-142.63;93.01
37170;BME280;23062;13.952;100.608;2022-09-03T00:19:09;748.57;;;-142.63;93.14
37170;BME280;23062;13.952;100.608;2022-09-03T00:24:02;748.37;;;-142.63;90.72
37170;BME280;23062;13.952;100.608;2022-09-03T00:29:02;748.30;;;-142.63;90.27
37170;BME280;23062;13.952;100.608;2022-09-03T00:33:57;748.33;;;-142.63;89.92
37170;BME280;23062;13.952;100.608;2022-09-03T00:38:46;748.34;;;-142.63;89.80
37170;BME280;23062;13.952;100.608;2022-09-03T01:04:24;748.63;;;-142.63;89.64
37170;BME280;23062;13.952;100.608;2022-09-03T01:34:56;748.32;;;-142.63;88.53
37170;BME280;23062;13.952;100.608;2022-09-03T01:39:54;748.28;;;-142.63;88.10
37170;BME280;23062;13.952;100.608;2022-09-03T02:05:11;748.13;;;-142.63;87.07
37170;BME280;23062;13.952;100.608;2022-09-03T02:10:05;748.06;;;-142.63;87.39
37170;BME280;23062;13.952;100.608;2022-09-03T02:14:55;748.01;;;-142.63;87.30
37170;BME280;23062;13.952;100.608;2022-09-03T02:19:44;748.02;;;-142.63;86.92
37170;BME280;23062;13.952;100.608;2022-09-03T02:24:35;748.01;;;-142.63;86.88
37170;BME280;23062;13.952;100.608;2022-09-03T02:29:25;748.04;;;-142.63;87.30
37170;BME280;23062;13.952;100.608;2022-09-03T02:34:15;748.05;;;-142.63;87.30
37170;BME280;23062;13.952;100.608;2022-09-03T02:39:05;748.01;;;-142.63;86.94
37170;BME280;23062;13.952;100.608;2022-09-03T02:49:12;747.93;;;-142.63;86.20
37170;BME280;23062;13.952;100.608;2022-09-03T02:54:03;747.71;;;-142.63;84.90
37170;BME280;23062;13.952;100.608;2022-09-03T02:58:56;747.57;;;-142.63;84.54
37170;BME280;23062;13.952;100.608;2022-09-03T03:03:50;747.62;;;-142.63;84.42
37170;BME280;23062;13.952;100.608;2022-09-03T03:08:40;747.39;;;-142.63;83.62
37170;BME280;23062;13.952;100.608;2022-09-03T03:13:32;747.31;;;-142.63;83.38
37170;BME280;23062;13.952;100.608;2022-09-03T03:18:21;747.17;;;-142.63;82.86
37170;BME280;23062;13.952;100.608;2022-09-03T03:23:11;746.97;;;-142.63;81.63
37170;BME280;23062;13.952;100.608;2022-09-03T03:28:00;746.90;;;-142.63;81.63
37170;BME280;23062;13.952;100.608;2022-09-03T03:32:52;746.85;;;-142.63;81.17
37170;BME280;23062;13.952;100.608;2022-09-03T03:37:42;746.67;;;-142.63;81.49
37170;BME280;23062;13.952;100.608;2022-09-03T03:42:34;746.89;;;-142.63;82.00
37170;BME280;23062;13.952;100.608;2022-09-03T03:47:23;746.83;;;-142.63;80.62
37170;BME280;23062;13.952;100.608;2022-09-03T03:52:13;746.71;;;-142.63;80.91
37170;BME280;23062;13.952;100.608;2022-09-03T03:57:03;746.64;;;-142.63;81.22
37170;BME280;23062;13.952;100.608;2022-09-03T04:01:54;746.57;;;-142.63;80.15
37170;BME280;23062;13.952;100.608;2022-09-03T04:06:44;746.82;;;-142.63;78.75
37170;BME280;23062;13.952;100.608;2022-09-03T04:11:35;747.00;;;-142.63;79.55
37170;BME280;23062;13.952;100.608;2022-09-03T04:16:26;747.00;;;-142.63;78.15
37170;BME280;23062;13.952;100.608;2022-09-03T04:21:17;747.13;;;-142.63;74.72
37170;BME280;23062;13.952;100.608;2022-09-03T04:26:08;747.22;;;-142.63;73.90
37170;BME280;23062;13.952;100.608;2022-09-03T04:31:06;747.29;;;-142.63;74.50
37170;BME280;23062;13.952;100.608;2022-09-03T04:36:09;747.60;;;-142.63;75.83
37170;BME280;23062;13.952;100.608;2022-09-03T04:40:58;748.07;;;-142.63;77.69
37170;BME280;23062;13.952;100.608;2022-09-03T04:45:48;748.59;;;-142.63;73.98
37170;BME280;23062;13.952;100.608;2022-09-03T04:50:37;749.28;;;-142.63;75.04
37170;BME280;23062;13.952;100.608;2022-09-03T04:55:26;749.41;;;-142.63;76.71
37170;BME280;23062;13.952;100.608;2022-09-03T05:00:16;749.40;;;-142.63;76.07
37170;BME280;23062;13.952;100.608;2022-09-03T05:05:07;749.20;;;-142.63;73.97
37170;BME280;23062;13.952;100.608;2022-09-03T05:09:57;749.09;;;-142.63;73.29
37170;BME280;23062;13.952;100.608;2022-09-03T05:14:46;748.88;;;-142.63;73.98
37170;BME280;23062;13.952;100.608;2022-09-03T05:19:36;748.61;;;-142.63;74.29
37170;BME280;23062;13.952;100.608;2022-09-03T05:24:26;748.28;;;-142.63;74.87
37170;BME280;23062;13.952;100.608;2022-09-03T05:29:16;748.11;;;-142.63;75.43
37170;BME280;23062;13.952;100.608;2022-09-03T05:34:07;748.08;;;-142.63;76.17
37170;BME280;23062;13.952;100.608;2022-09-03T05:38:57;747.95;;;-142.63;74.29
37170;BME280;23062;13.952;100.608;2022-09-03T05:43:48;747.65;;;-142.63;76.50
37170;BME280;23062;13.952;100.608;2022-09-03T05:48:42;747.37;;;-142.63;77.94
37170;BME280;23062;13.952;100.608;2022-09-03T05:53:34;747.06;;;-142.63;78.43
37170;BME280;23062;13.952;100.608;2022-09-03T05:58:23;747.46;;;-142.63;81.88
37170;BME280;23062;13.952;100.608;2022-09-03T06:03:15;747.60;;;-142.63;80.96
37170;BME280;23062;13.952;100.608;2022-09-03T06:08:04;747.30;;;-142.63;78.04
37170;BME280;23062;13.952;100.608;2022-09-03T06:12:54;747.12;;;-142.63;74.53
37170;BME280;23062;13.952;100.608;2022-09-03T06:17:46;747.00;;;-142.63;76.65
37170;BME280;23062;13.952;100.608;2022-09-03T06:22:36;746.94;;;-142.63;76.32
37170;BME280;23062;13.952;100.608;2022-09-03T06:27:27;746.72;;;-142.63;76.97
37170;BME280;23062;13.952;100.608;2022-09-03T06:32:16;746.56;;;-142.63;76.64
37170;BME280;23062;13.952;100.608;2022-09-03T06:37:06;746.48;;;-142.63;77.47
37170;BME280;23062;13.952;100.608;2022-09-03T06:41:57;746.32;;;-142.63;77.55
37170;BME280;23062;13.952;100.608;2022-09-03T06:46:47;746.12;;;-142.63;77.31
37170;BME280;23062;13.952;100.608;2022-09-03T06:51:37;746.39;;;-142.63;78.88
37170;BME280;23062;13.952;100.608;2022-09-03T06:56:27;746.28;;;-142.63;78.64
37170;BME280;23062;13.952;100.608;2022-09-03T07:01:19;746.07;;;-142.63;78.69
37170;BME280;23062;13.952;100.608;2022-09-03T07:06:16;745.92;;;-142.63;77.90
37170;BME280;23062;13.952;100.608;2022-09-03T07:11:08;745.76;;;-142.63;77.13
37170;BME280;23062;13.952;100.608;2022-09-03T07:16:03;745.62;;;-142.63;75.93
37170;BME280;23062;13.952;100.608;2022-09-03T07:21:02;745.51;;;-142.63;75.15
37170;BME280;23062;13.952;100.608;2022-09-03T07:25:57;745.39;;;-142.63;74.57
37170;BME280;23062;13.952;100.608;2022-09-03T07:30:43;745.33;;;-142.63;72.64
37170;BME280;23062;13.952;100.608;2022-09-03T07:35:35;745.19;;;-142.63;73.53
37170;BME280;23062;13.952;100.608;2022-09-03T07:40:24;745.04;;;-142.63;72.60
37170;BME280;23062;13.952;100.608;2022-09-03T07:45:13;745.00;;;-142.63;72.96
37170;BME280;23062;13.952;100.608;2022-09-03T07:50:04;744.90;;;-142.63;72.27
37170;BME280;23062;13.952;100.608;2022-09-03T07:54:54;744.83;;;-142.63;72.35
37170;BME280;23062;13.952;100.608;2022-09-03T07:59:43;744.81;;;-142.63;70.82
37170;BME280;23062;13.952;100.608;2022-09-03T08:04:33;744.73;;;-142.63;68.44
37170;BME280;23062;13.952;100.608;2022-09-03T08:09:23;744.71;;;-142.63;68.52
37170;BME280;23062;13.952;100.608;2022-09-03T08:14:13;744.66;;;-142.63;68.35
37170;BME280;23062;13.952;100.608;2022-09-03T08:19:03;744.63;;;-142.63;69.00
37170;BME280;23062;13.952;100.608;2022-09-03T08:23:54;744.54;;;-142.63;68.88
37170;BME280;23062;13.952;100.608;2022-09-03T08:28:51;744.42;;;-142.63;68.54
37170;BME280;23062;13.952;100.608;2022-09-03T08:33:50;744.35;;;-142.63;69.13
37170;BME280;23062;13.952;100.608;2022-09-03T08:38:39;744.37;;;-142.63;69.36
37170;BME280;23062;13.952;100.608;2022-09-03T08:43:31;744.32;;;-142.63;68.51
37170;BME280;23062;13.952;100.608;2022-09-03T08:48:23;744.35;;;-142.63;68.30
37170;BME280;23062;13.952;100.608;2022-09-03T08:53:26;744.39;;;-142.63;68.33
37170;BME280;23062;13.952;100.608;2022-09-03T08:58:24;744.49;;;-142.63;68.34
37170;BME280;23062;13.952;100.608;2022-09-03T09:13:53;744.69;;;-142.63;68.92
37170;BME280;23062;13.952;100.608;2022-09-03T09:18:55;744.66;;;-142.63;68.83
37170;BME280;23062;13.952;100.608;2022-09-03T09:23:46;744.62;;;-142.63;68.21
37170;BME280;23062;13.952;100.608;2022-09-03T09:28:37;744.63;;;-142.63;68.38
37170;BME280;23062;13.952;100.608;2022-09-03T09:33:28;744.55;;;-142.63;68.17
37170;BME280;23062;13.952;100.608;2022-09-03T09:38:34;744.52;;;-142.63;68.14
37170;BME280;23062;13.952;100.608;2022-09-03T09:43:26;744.50;;;-142.63;67.96
37170;BME280;23062;13.952;100.608;2022-09-03T09:48:29;744.53;;;-142.63;67.94
37170;BME280;23062;13.952;100.608;2022-09-03T09:53:20;744.46;;;-142.63;68.01
37170;BME280;23062;13.952;100.608;2022-09-03T09:58:10;744.43;;;-142.63;68.01
37170;BME280;23062;13.952;100.608;2022-09-03T10:03:00;744.52;;;-142.63;68.69
37170;BME280;23062;13.952;100.608;2022-09-03T10:08:00;744.52;;;-142.63;69.01
37170;BME280;23062;13.952;100.608;2022-09-03T10:13:01;744.58;;;-142.63;69.82
37170;BME280;23062;13.952;100.608;2022-09-03T10:27:45;744.46;;;-142.63;69.96
37170;BME280;23062;13.952;100.608;2022-09-03T10:33:01;744.51;;;-142.63;69.85
37170;BME280;23062;13.952;100.608;2022-09-03T10:38:16;744.66;;;-142.63;70.34
37170;BME280;23062;13.952;100.608;2022-09-03T10:48:43;745.78;;;-142.63;73.15
37170;BME280;23062;13.952;100.608;2022-09-03T10:53:50;746.09;;;-142.63;69.86
37170;BME280;23062;13.952;100.608;2022-09-03T11:09:19;746.95;;;-142.63;68.43
37170;BME280;23062;13.952;100.608;2022-09-03T11:14:12;746.68;;;-142.63;68.17
37170;BME280;23062;13.952;100.608;2022-09-03T11:19:10;746.90;;;-142.63;69.03
37170;BME280;23062;13.952;100.608;2022-09-03T11:39:33;746.53;;;-142.63;71.90
37170;BME280;23062;13.952;100.608;2022-09-03T11:44:18;746.41;;;-142.63;71.38
37170;BME280;23062;13.952;100.608;2022-09-03T11:49:12;746.32;;;-142.63;72.38
37170;BME280;23062;13.952;100.608;2022-09-03T11:54:22;746.27;;;-142.63;74.54
37170;BME280;23062;13.952;100.608;2022-09-03T11:59:16;746.27;;;-142.63;73.85
37170;BME280;23062;13.952;100.608;2022-09-03T12:04:12;746.44;;;-142.63;74.07
37170;BME280;23062;13.952;100.608;2022-09-03T12:09:37;746.39;;;-142.63;75.54
37170;BME280;23062;13.952;100.608;2022-09-03T12:14:36;746.36;;;-142.63;75.77
37170;BME280;23062;13.952;100.608;2022-09-03T12:24:20;746.18;;;-142.63;74.86
37170;BME280;23062;13.952;100.608;2022-09-03T12:29:24;746.23;;;-142.63;75.09
37170;BME280;23062;13.952;100.608;2022-09-03T12:34:18;746.34;;;-142.63;76.27
37170;BME280;23062;13.952;100.608;2022-09-03T12:39:16;746.32;;;-142.63;75.70
37170;BME280;23062;13.952;100.608;2022-09-03T12:44:01;746.29;;;-142.63;75.86
37170;BME280;23062;13.952;100.608;2022-09-03T12:48:58;746.46;;;-142.63;75.12
37170;BME280;23062;13.952;100.608;2022-09-03T12:53:52;746.34;;;-142.63;75.67
37170;BME280;23062;13.952;100.608;2022-09-03T12:58:53;746.48;;;-142.63;75.19
37170;BME280;23062;13.952;100.608;2022-09-03T13:04:07;746.65;;;-142.63;76.38
37170;BME280;23062;13.952;100.608;2022-09-03T13:09:02;746.75;;;-142.63;75.49
37170;BME280;23062;13.952;100.608;2022-09-03T13:14:06;746.74;;;-142.63;75.45
37170;BME280;23062;13.952;100.608;2022-09-03T13:24:21;746.81;;;-142.63;75.20
37170;BME280;23062;13.952;100.608;2022-09-03T13:34:20;746.88;;;-142.63;76.03
37170;BME280;23062;13.952;100.608;2022-09-03T13:39:19;746.86;;;-142.63;76.66
37170;BME280;23062;13.952;100.608;2022-09-03T13:49:42;746.95;;;-142.63;76.74
37170;BME280;23062;13.952;100.608;2022-09-03T13:54:57;746.99;;;-142.63;76.79
37170;BME280;23062;13.952;100.608;2022-09-03T14:00:05;747.06;;;-142.63;76.47
37170;BME280;23062;13.952;100.608;2022-09-03T14:05:19;747.14;;;-142.63;76.75
37170;BME280;23062;13.952;100.608;2022-09-03T14:15:32;747.32;;;-142.63;77.44
37170;BME280;23062;13.952;100.608;2022-09-03T14:25:30;747.40;;;-142.63;76.38
37170;BME280;23062;13.952;100.608;2022-09-03T14:30:32;747.44;;;-142.63;76.97
37170;BME280;23062;13.952;100.608;2022-09-03T14:35:30;747.51;;;-142.63;77.12
37170;BME280;23062;13.952;100.608;2022-09-03T14:40:27;747.57;;;-142.63;77.52
37170;BME280;23062;13.952;100.608;2022-09-03T14:45:14;747.66;;;-142.63;77.73
37170;BME280;23062;13.952;100.608;2022-09-03T14:50:09;747.65;;;-142.63;77.68
37170;BME280;23062;13.952;100.608;2022-09-03T15:00:20;747.68;;;-142.63;78.15
37170;BME280;23062;13.952;100.608;2022-09-03T15:25:56;747.93;;;-142.63;79.23
37170;BME280;23062;13.952;100.608;2022-09-03T15:30:44;747.98;;;-142.63;79.19
37170;BME280;23062;13.952;100.608;2022-09-03T15:41:06;747.94;;;-142.63;79.47
37170;BME280;23062;13.952;100.608;2022-09-03T15:46:01;747.90;;;-142.63;79.32
37170;BME280;23062;13.952;100.608;2022-09-03T15:51:09;747.93;;;-142.63;79.32
37170;BME280;23062;13.952;100.608;2022-09-03T16:06:15;747.93;;;-142.63;79.11
37170;BME280;23062;13.952;100.608;2022-09-03T16:11:04;747.99;;;-142.63;79.62
37170;BME280;23062;13.952;100.608;2022-09-03T16:16:10;747.97;;;-142.63;79.04
37170;BME280;23062;13.952;100.608;2022-09-03T16:21:25;747.96;;;-142.63;79.11
37170;BME280;23062;13.952;100.608;2022-09-03T16:26:17;747.94;;;-142.63;78.99
37170;BME280;23062;13.952;100.608;2022-09-03T16:31:11;747.88;;;-142.63;78.92
37170;BME280;23062;13.952;100.608;2022-09-03T16:41:31;747.88;;;-142.63;78.98
37170;BME280;23062;13.952;100.608;2022-09-03T16:46:45;747.93;;;-142.63;79.10
37170;BME280;23062;13.952;100.608;2022-09-03T16:56:58;747.89;;;-142.63;79.11
37170;BME280;23062;13.952;100.608;2022-09-03T17:17:36;747.93;;;-142.63;79.63
37170;BME280;23062;13.952;100.608;2022-09-03T17:43:38;747.76;;;-142.63;80.15
37170;BME280;23062;13.952;100.608;2022-09-03T17:48:48;747.81;;;-142.63;80.48
37170;BME280;23062;13.952;100.608;2022-09-03T17:53:58;747.83;;;-142.63;80.80
37170;BME280;23062;13.952;100.608;2022-09-03T17:58:50;747.79;;;-142.63;80.75
37170;BME280;23062;13.952;100.608;2022-09-03T18:24:30;747.73;;;-142.63;80.81
37170;BME280;23062;13.952;100.608;2022-09-03T18:29:47;747.74;;;-142.63;81.40
37170;BME280;23062;13.952;100.608;2022-09-03T18:35:03;747.77;;;-142.63;81.40
37170;BME280;23062;13.952;100.608;2022-09-03T18:40:24;747.80;;;-142.63;81.42
37170;BME280;23062;13.952;100.608;2022-09-03T18:51:20;747.74;;;-142.63;82.04
37170;BME280;23062;13.952;100.608;2022-09-03T19:01:41;747.69;;;-142.63;81.43
37170;BME280;23062;13.952;100.608;2022-09-03T19:23:16;747.73;;;-142.63;82.22
37170;BME280;23062;13.952;100.608;2022-09-03T19:28:34;747.78;;;-142.63;82.08
37170;BME280;23062;13.952;100.608;2022-09-03T19:39:15;747.80;;;-142.63;82.16
37170;BME280;23062;13.952;100.608;2022-09-03T19:44:33;747.73;;;-142.63;82.59
37170;BME280;23062;13.952;100.608;2022-09-03T19:50:08;747.63;;;-142.63;82.83
37170;BME280;23062;13.952;100.608;2022-09-03T19:55:20;747.63;;;-142.63;82.45
37170;BME280;23062;13.952;100.608;2022-09-03T20:00:36;747.56;;;-142.63;82.67
37170;BME280;23062;13.952;100.608;2022-09-03T20:05:51;747.42;;;-142.63;83.03
37170;BME280;23062;13.952;100.608;2022-09-03T20:11:10;747.38;;;-142.63;82.46
37170;BME280;23062;13.952;100.608;2022-09-03T20:16:27;747.41;;;-142.63;83.06
37170;BME280;23062;13.952;100.608;2022-09-03T20:31:30;747.41;;;-142.63;83.06
37170;BME280;23062;13.952;100.608;2022-09-03T20:41:48;747.46;;;-142.63;82.96
37170;BME280;23062;13.952;100.608;2022-09-03T20:46:53;747.41;;;-142.63;82.90
37170;BME280;23062;13.952;100.608;2022-09-03T20:51:45;747.38;;;-142.63;83.24
37170;BME280;23062;13.952;100.608;2022-09-03T21:06:36;747.64;;;-142.63;82.85
37170;BME280;23062;13.952;100.608;2022-09-03T21:21:38;748.47;;;-142.63;84.10
37170;BME280;23062;13.952;100.608;2022-09-03T21:26:34;748.75;;;-142.63;81.15
37170;BME280;23062;13.952;100.608;2022-09-03T21:31:37;748.82;;;-142.63;79.08
37170;BME280;23062;13.952;100.608;2022-09-03T21:36:29;748.99;;;-142.63;74.23
37170;BME280;23062;13.952;100.608;2022-09-03T21:46:26;749.11;;;-142.63;72.40
37170;BME280;23062;13.952;100.608;2022-09-03T21:51:30;749.19;;;-142.63;73.26
37170;BME280;23062;13.952;100.608;2022-09-03T21:56:29;749.35;;;-142.63;74.78
37170;BME280;23062;13.952;100.608;2022-09-03T22:06:44;749.32;;;-142.63;73.78
37170;BME280;23062;13.952;100.608;2022-09-03T22:36:39;749.05;;;-142.63;73.28
37170;BME280;23062;13.952;100.608;2022-09-03T22:42:00;749.28;;;-142.63;73.24
37170;BME280;23062;13.952;100.608;2022-09-03T22:57:02;749.44;;;-142.63;73.76
37170;BME280;23062;13.952;100.608;2022-09-03T23:02:24;749.29;;;-142.63;73.75
37170;BME280;23062;13.952;100.608;2022-09-03T23:12:32;749.02;;;-142.63;73.14
37170;BME280;23062;13.952;100.608;2022-09-03T23:22:22;748.93;;;-142.63;73.98
37170;BME280;23062;13.952;100.608;2022-09-03T23:27:17;749.38;;;-142.63;79.75
37170;BME280;23062;13.952;100.608;2022-09-03T23:32:08;749.50;;;-142.63;79.03
37170;BME280;23062;13.952;100.608;2022-09-03T23:37:02;749.55;;;-142.63;77.39
37170;BME280;23062;13.952;100.608;2022-09-03T23:41:58;749.61;;;-142.63;76.69
37170;BME280;23062;13.952;100.608;2022-09-03T23:57:29;749.74;;;-142.63;77.29
